sensor_id;sensor_type;location;lat;lon;timestamp;P1;durP1;ratioP1;P2;durP2;ratioP2
18435;SDS011;9346;52.006;4.720;2023-05-14T00:01:18;13.83;;;10.23;;
18435;SDS011;9346;52.006;4.720;2023-05-14T00:03:45;18.50;;;11.53;;
18435;SDS011;9346;52.006;4.720;2023-05-14T00:06:14;16.07;;;10.83;;
18435;SDS011;9346;52.006;4.720;2023-05-14T00:08:41;14.20;;;10.50;;
18435;SDS011;9346;52.006;4.720;2023-05-14T00:11:08;16.90;;;10.40;;
18435;SDS011;9346;52.006;4.720;2023-05-14T00:13:35;15.83;;;11.23;;
18435;SDS011;9346;52.006;4.720;2023-05-14T00:16:02;15.80;;;10.97;;
18435;SDS011;9346;52.006;4.720;2023-05-14T00:18:29;14.30;;;10.27;;
18435;SDS011;9346;52.006;4.720;2023-05-14T00:20:56;13.77;;;10.47;;
18435;SDS011;9346;52.006;4.720;2023-05-14T00:23:25;12.97;;;9.63;;
18435;SDS011;9346;52.006;4.720;2023-05-14T00:25:52;17.53;;;10.20;;
18435;SDS011;9346;52.006;4.720;2023-05-14T00:28:19;17.57;;;9.70;;
18435;SDS011;9346;52.006;4.720;2023-05-14T00:30:46;14.17;;;10.13;;
18435;SDS011;9346;52.006;4.720;2023-05-14T00:33:13;15.83;;;10.63;;
18435;SDS011;9346;52.006;4.720;2023-05-14T00:35:40;15.43;;;9.97;;
18435;SDS011;9346;52.006;4.720;2023-05-14T00:38:07;19.97;;;10.43;;
18435;SDS011;9346;52.006;4.720;2023-05-14T00:40:43;14.30;;;9.37;;
18435;SDS011;9346;52.006;4.720;2023-05-14T00:43:15;13.07;;;9.00;;
18435;SDS011;9346;52.006;4.720;2023-05-14T00:45:42;12.60;;;8.43;;
18435;SDS011;9346;52.006;4.720;2023-05-14T00:48:10;11.27;;;8.33;;
18435;SDS011;9346;52.006;4.720;2023-05-14T00:50:37;12.63;;;8.53;;
18435;SDS011;9346;52.006;4.720;2023-05-14T00:53:04;16.63;;;10.20;;
18435;SDS011;9346;52.006;4.720;2023-05-14T00:55:34;13.20;;;8.77;;
18435;SDS011;9346;52.006;4.720;2023-05-14T00:58:03;13.70;;;8.00;;
18435;SDS011;9346;52.006;4.720;2023-05-14T01:00:34;12.73;;;9.50;;
18435;SDS011;9346;52.006;4.720;2023-05-14T01:03:01;13.40;;;9.07;;
18435;SDS011;9346;52.006;4.720;2023-05-14T01:05:31;15.87;;;10.70;;
18435;SDS011;9346;52.006;4.720;2023-05-14T01:08:08;13.23;;;8.90;;
18435;SDS011;9346;52.006;4.720;2023-05-14T01:10:45;16.03;;;9.47;;
18435;SDS011;9346;52.006;4.720;2023-05-14T01:13:21;12.80;;;9.03;;
18435;SDS011;9346;52.006;4.720;2023-05-14T01:15:55;16.13;;;10.37;;
18435;SDS011;9346;52.006;4.720;2023-05-14T01:18:25;11.93;;;9.03;;
18435;SDS011;9346;52.006;4.720;2023-05-14T01:20:53;14.67;;;10.50;;
18435;SDS011;9346;52.006;4.720;2023-05-14T01:23:22;13.20;;;9.97;;
18435;SDS011;9346;52.006;4.720;2023-05-14T01:25:49;11.63;;;8.70;;
18435;SDS011;9346;52.006;4.720;2023-05-14T01:28:16;13.43;;;9.83;;
18435;SDS011;9346;52.006;4.720;2023-05-14T01:30:47;14.23;;;10.03;;
18435;SDS011;9346;52.006;4.720;2023-05-14T01:33:17;19.33;;;10.50;;
18435;SDS011;9346;52.006;4.720;2023-05-14T01:35:47;16.13;;;10.33;;
18435;SDS011;9346;52.006;4.720;2023-05-14T01:38:17;14.17;;;10.13;;
18435;SDS011;9346;52.006;4.720;2023-05-14T01:40:47;18.27;;;11.47;;
18435;SDS011;9346;52.006;4.720;2023-05-14T01:43:15;15.67;;;10.07;;
18435;SDS011;9346;52.006;4.720;2023-05-14T01:45:43;14.07;;;9.87;;
18435;SDS011;9346;52.006;4.720;2023-05-14T01:48:10;13.80;;;11.37;;
18435;SDS011;9346;52.006;4.720;2023-05-14T01:50:38;16.63;;;10.77;;
18435;SDS011;9346;52.006;4.720;2023-05-14T01:53:05;16.33;;;10.60;;
18435;SDS011;9346;52.006;4.720;2023-05-14T01:55:32;17.50;;;11.23;;
18435;SDS011;9346;52.006;4.720;2023-05-14T01:58:01;17.50;;;11.03;;
18435;SDS011;9346;52.006;4.720;2023-05-14T02:00:28;16.93;;;10.67;;
18435;SDS011;9346;52.006;4.720;2023-05-14T02:02:55;17.93;;;10.47;;
18435;SDS011;9346;52.006;4.720;2023-05-14T02:05:22;17.10;;;10.70;;
18435;SDS011;9346;52.006;4.720;2023-05-14T02:07:49;12.90;;;9.47;;
18435;SDS011;9346;52.006;4.720;2023-05-14T02:10:15;15.83;;;9.90;;
18435;SDS011;9346;52.006;4.720;2023-05-14T02:12:42;18.27;;;10.37;;
18435;SDS011;9346;52.006;4.720;2023-05-14T02:15:11;14.33;;;10.00;;
18435;SDS011;9346;52.006;4.720;2023-05-14T02:17:38;13.73;;;9.77;;
18435;SDS011;9346;52.006;4.720;2023-05-14T02:20:06;17.80;;;10.53;;
18435;SDS011;9346;52.006;4.720;2023-05-14T02:22:34;18.37;;;11.57;;
18435;SDS011;9346;52.006;4.720;2023-05-14T02:25:01;15.40;;;9.97;;
18435;SDS011;9346;52.006;4.720;2023-05-14T02:27:28;14.07;;;9.60;;
18435;SDS011;9346;52.006;4.720;2023-05-14T02:29:54;14.57;;;10.47;;
18435;SDS011;9346;52.006;4.720;2023-05-14T02:32:26;14.13;;;10.47;;
18435;SDS011;9346;52.006;4.720;2023-05-14T02:34:53;18.43;;;10.87;;
18435;SDS011;9346;52.006;4.720;2023-05-14T02:37:20;20.47;;;11.23;;
18435;SDS011;9346;52.006;4.720;2023-05-14T02:39:47;20.33;;;11.23;;
18435;SDS011;9346;52.006;4.720;2023-05-14T02:42:14;16.30;;;10.27;;
18435;SDS011;9346;52.006;4.720;2023-05-14T02:44:41;21.87;;;11.90;;
18435;SDS011;9346;52.006;4.720;2023-05-14T02:47:08;16.93;;;11.40;;
18435;SDS011;9346;52.006;4.720;2023-05-14T02:49:36;16.90;;;11.03;;
18435;SDS011;9346;52.006;4.720;2023-05-14T02:52:04;21.83;;;11.87;;
18435;SDS011;9346;52.006;4.720;2023-05-14T02:54:31;15.30;;;11.23;;
18435;SDS011;9346;52.006;4.720;2023-05-14T02:56:58;15.00;;;10.90;;
18435;SDS011;9346;52.006;4.720;2023-05-14T02:59:25;18.33;;;11.87;;
18435;SDS011;9346;52.006;4.720;2023-05-14T03:01:53;20.83;;;12.50;;
18435;SDS011;9346;52.006;4.720;2023-05-14T03:04:20;21.20;;;12.80;;
18435;SDS011;9346;52.006;4.720;2023-05-14T03:06:48;18.80;;;11.97;;
18435;SDS011;9346;52.006;4.720;2023-05-14T03:09:16;21.23;;;11.87;;
18435;SDS011;9346;52.006;4.720;2023-05-14T03:11:42;20.03;;;12.37;;
18435;SDS011;9346;52.006;4.720;2023-05-14T03:14:09;19.33;;;12.33;;
18435;SDS011;9346;52.006;4.720;2023-05-14T03:16:36;20.37;;;12.33;;
18435;SDS011;9346;52.006;4.720;2023-05-14T03:19:06;22.23;;;13.13;;
18435;SDS011;9346;52.006;4.720;2023-05-14T03:21:33;17.13;;;11.37;;
18435;SDS011;9346;52.006;4.720;2023-05-14T03:24:02;21.53;;;11.30;;
18435;SDS011;9346;52.006;4.720;2023-05-14T03:26:29;20.50;;;11.83;;
18435;SDS011;9346;52.006;4.720;2023-05-14T03:28:56;20.63;;;12.30;;
18435;SDS011;9346;52.006;4.720;2023-05-14T03:31:23;23.90;;;11.50;;
18435;SDS011;9346;52.006;4.720;2023-05-14T03:33:50;24.90;;;13.87;;
18435;SDS011;9346;52.006;4.720;2023-05-14T03:36:17;19.27;;;12.07;;
18435;SDS011;9346;52.006;4.720;2023-05-14T03:38:44;20.47;;;11.63;;
18435;SDS011;9346;52.006;4.720;2023-05-14T03:41:13;17.90;;;12.67;;
18435;SDS011;9346;52.006;4.720;2023-05-14T03:43:41;19.20;;;12.20;;
18435;SDS011;9346;52.006;4.720;2023-05-14T03:46:08;23.30;;;13.13;;
18435;SDS011;9346;52.006;4.720;2023-05-14T03:48:35;22.27;;;13.37;;
18435;SDS011;9346;52.006;4.720;2023-05-14T03:51:02;19.27;;;12.30;;
18435;SDS011;9346;52.006;4.720;2023-05-14T03:53:29;18.80;;;12.27;;
18435;SDS011;9346;52.006;4.720;2023-05-14T03:55:57;21.53;;;12.30;;
18435;SDS011;9346;52.006;4.720;2023-05-14T03:58:25;23.03;;;13.33;;
18435;SDS011;9346;52.006;4.720;2023-05-14T04:00:52;19.53;;;12.27;;
18435;SDS011;9346;52.006;4.720;2023-05-14T04:03:19;20.43;;;11.83;;
18435;SDS011;9346;52.006;4.720;2023-05-14T04:05:46;24.37;;;13.77;;
18435;SDS011;9346;52.006;4.720;2023-05-14T04:08:13;24.53;;;13.17;;
18435;SDS011;9346;52.006;4.720;2023-05-14T04:10:40;22.83;;;14.00;;
18435;SDS011;9346;52.006;4.720;2023-05-14T04:13:08;22.13;;;13.60;;
18435;SDS011;9346;52.006;4.720;2023-05-14T04:15:36;20.90;;;12.37;;
18435;SDS011;9346;52.006;4.720;2023-05-14T04:18:04;19.13;;;12.00;;
18435;SDS011;9346;52.006;4.720;2023-05-14T04:20:31;18.70;;;12.67;;
18435;SDS011;9346;52.006;4.720;2023-05-14T04:22:58;19.93;;;12.60;;
18435;SDS011;9346;52.006;4.720;2023-05-14T04:25:25;23.47;;;13.23;;
18435;SDS011;9346;52.006;4.720;2023-05-14T04:27:52;23.17;;;11.70;;
18435;SDS011;9346;52.006;4.720;2023-05-14T04:30:19;19.27;;;12.93;;
18435;SDS011;9346;52.006;4.720;2023-05-14T04:32:47;18.57;;;11.43;;
18435;SDS011;9346;52.006;4.720;2023-05-14T04:35:15;19.77;;;11.77;;
18435;SDS011;9346;52.006;4.720;2023-05-14T04:37:42;17.63;;;11.13;;
18435;SDS011;9346;52.006;4.720;2023-05-14T04:40:10;20.23;;;13.07;;
18435;SDS011;9346;52.006;4.720;2023-05-14T04:42:38;18.20;;;10.97;;
18435;SDS011;9346;52.006;4.720;2023-05-14T04:45:05;19.60;;;12.20;;
18435;SDS011;9346;52.006;4.720;2023-05-14T04:47:33;17.47;;;11.43;;
18435;SDS011;9346;52.006;4.720;2023-05-14T04:50:01;21.70;;;12.47;;
18435;SDS011;9346;52.006;4.720;2023-05-14T04:52:28;19.67;;;12.53;;
18435;SDS011;9346;52.006;4.720;2023-05-14T04:54:55;23.50;;;12.33;;
18435;SDS011;9346;52.006;4.720;2023-05-14T04:57:22;19.37;;;12.00;;
18435;SDS011;9346;52.006;4.720;2023-05-14T04:59:49;22.67;;;12.90;;
18435;SDS011;9346;52.006;4.720;2023-05-14T05:02:16;20.33;;;11.40;;
18435;SDS011;9346;52.006;4.720;2023-05-14T05:04:43;21.47;;;11.83;;
18435;SDS011;9346;52.006;4.720;2023-05-14T05:07:12;20.67;;;12.13;;
18435;SDS011;9346;52.006;4.720;2023-05-14T05:09:40;20.83;;;13.03;;
18435;SDS011;9346;52.006;4.720;2023-05-14T05:12:08;18.20;;;12.33;;
18435;SDS011;9346;52.006;4.720;2023-05-14T05:14:35;20.60;;;13.53;;
18435;SDS011;9346;52.006;4.720;2023-05-14T05:17:02;20.63;;;13.30;;
18435;SDS011;9346;52.006;4.720;2023-05-14T05:19:29;19.03;;;12.03;;
18435;SDS011;9346;52.006;4.720;2023-05-14T05:21:56;17.50;;;12.73;;
18435;SDS011;9346;52.006;4.720;2023-05-14T05:24:25;19.43;;;13.20;;
18435;SDS011;9346;52.006;4.720;2023-05-14T05:26:52;19.93;;;13.53;;
18435;SDS011;9346;52.006;4.720;2023-05-14T05:29:19;17.03;;;11.97;;
18435;SDS011;9346;52.006;4.720;2023-05-14T05:31:47;20.80;;;13.10;;
18435;SDS011;9346;52.006;4.720;2023-05-14T05:34:14;23.87;;;13.17;;
18435;SDS011;9346;52.006;4.720;2023-05-14T05:36:41;23.20;;;13.47;;
18435;SDS011;9346;52.006;4.720;2023-05-14T05:39:08;21.20;;;13.37;;
18435;SDS011;9346;52.006;4.720;2023-05-14T05:41:37;19.70;;;13.27;;
18435;SDS011;9346;52.006;4.720;2023-05-14T05:44:05;24.97;;;14.90;;
18435;SDS011;9346;52.006;4.720;2023-05-14T05:46:31;22.70;;;13.33;;
18435;SDS011;9346;52.006;4.720;2023-05-14T05:48:59;24.60;;;13.73;;
18435;SDS011;9346;52.006;4.720;2023-05-14T05:51:26;27.73;;;15.17;;
18435;SDS011;9346;52.006;4.720;2023-05-14T05:53:53;21.77;;;14.07;;
18435;SDS011;9346;52.006;4.720;2023-05-14T05:56:19;25.43;;;14.47;;
18435;SDS011;9346;52.006;4.720;2023-05-14T05:58:48;21.13;;;14.17;;
18435;SDS011;9346;52.006;4.720;2023-05-14T06:01:15;26.20;;;14.77;;
18435;SDS011;9346;52.006;4.720;2023-05-14T06:03:42;22.03;;;14.07;;
18435;SDS011;9346;52.006;4.720;2023-05-14T06:06:09;20.10;;;13.83;;
18435;SDS011;9346;52.006;4.720;2023-05-14T06:08:36;29.87;;;15.47;;
18435;SDS011;9346;52.006;4.720;2023-05-14T06:11:03;33.43;;;16.70;;
18435;SDS011;9346;52.006;4.720;2023-05-14T06:13:30;29.10;;;16.70;;
18435;SDS011;9346;52.006;4.720;2023-05-14T06:15:59;27.57;;;15.50;;
18435;SDS011;9346;52.006;4.720;2023-05-14T06:18:25;26.23;;;15.37;;
18435;SDS011;9346;52.006;4.720;2023-05-14T06:20:52;28.97;;;16.97;;
18435;SDS011;9346;52.006;4.720;2023-05-14T06:23:20;31.93;;;18.10;;
18435;SDS011;9346;52.006;4.720;2023-05-14T06:25:48;30.17;;;17.20;;
18435;SDS011;9346;52.006;4.720;2023-05-14T06:28:15;29.77;;;17.33;;
18435;SDS011;9346;52.006;4.720;2023-05-14T06:30:42;27.17;;;16.60;;
18435;SDS011;9346;52.006;4.720;2023-05-14T06:33:10;27.10;;;16.17;;
18435;SDS011;9346;52.006;4.720;2023-05-14T06:35:37;29.07;;;16.57;;
18435;SDS011;9346;52.006;4.720;2023-05-14T06:38:04;28.30;;;17.80;;
18435;SDS011;9346;52.006;4.720;2023-05-14T06:40:31;29.63;;;17.40;;
18435;SDS011;9346;52.006;4.720;2023-05-14T06:42:58;27.77;;;17.70;;
18435;SDS011;9346;52.006;4.720;2023-05-14T06:45:25;32.30;;;18.83;;
18435;SDS011;9346;52.006;4.720;2023-05-14T06:47:52;31.07;;;18.20;;
18435;SDS011;9346;52.006;4.720;2023-05-14T06:50:21;30.90;;;17.63;;
18435;SDS011;9346;52.006;4.720;2023-05-14T06:52:48;31.83;;;18.70;;
18435;SDS011;9346;52.006;4.720;2023-05-14T06:55:15;26.43;;;16.40;;
18435;SDS011;9346;52.006;4.720;2023-05-14T06:57:42;34.97;;;18.50;;
18435;SDS011;9346;52.006;4.720;2023-05-14T07:00:10;28.87;;;16.50;;
18435;SDS011;9346;52.006;4.720;2023-05-14T07:02:38;31.50;;;18.47;;
18435;SDS011;9346;52.006;4.720;2023-05-14T07:05:05;30.83;;;17.60;;
18435;SDS011;9346;52.006;4.720;2023-05-14T07:07:35;27.13;;;16.57;;
18435;SDS011;9346;52.006;4.720;2023-05-14T07:10:02;23.37;;;15.80;;
18435;SDS011;9346;52.006;4.720;2023-05-14T07:12:30;32.00;;;17.53;;
18435;SDS011;9346;52.006;4.720;2023-05-14T07:14:57;27.57;;;16.97;;
18435;SDS011;9346;52.006;4.720;2023-05-14T07:17:24;26.60;;;17.03;;
18435;SDS011;9346;52.006;4.720;2023-05-14T07:19:51;25.47;;;15.37;;
18435;SDS011;9346;52.006;4.720;2023-05-14T07:22:19;27.37;;;17.57;;
18435;SDS011;9346;52.006;4.720;2023-05-14T07:24:48;23.70;;;15.33;;
18435;SDS011;9346;52.006;4.720;2023-05-14T07:27:15;22.03;;;14.83;;
18435;SDS011;9346;52.006;4.720;2023-05-14T07:29:42;25.17;;;16.27;;
18435;SDS011;9346;52.006;4.720;2023-05-14T07:32:09;26.37;;;16.57;;
18435;SDS011;9346;52.006;4.720;2023-05-14T07:34:37;25.13;;;15.80;;
18435;SDS011;9346;52.006;4.720;2023-05-14T07:37:04;23.03;;;15.30;;
18435;SDS011;9346;52.006;4.720;2023-05-14T07:39:31;25.03;;;14.73;;
18435;SDS011;9346;52.006;4.720;2023-05-14T07:42:00;22.43;;;14.67;;
18435;SDS011;9346;52.006;4.720;2023-05-14T07:44:27;23.47;;;16.00;;
18435;SDS011;9346;52.006;4.720;2023-05-14T07:46:54;21.40;;;14.17;;
18435;SDS011;9346;52.006;4.720;2023-05-14T07:49:21;18.83;;;13.53;;
18435;SDS011;9346;52.006;4.720;2023-05-14T07:51:48;17.60;;;12.10;;
18435;SDS011;9346;52.006;4.720;2023-05-14T07:54:15;18.60;;;12.80;;
18435;SDS011;9346;52.006;4.720;2023-05-14T07:56:42;19.17;;;12.37;;
18435;SDS011;9346;52.006;4.720;2023-05-14T07:59:10;19.13;;;11.73;;
18435;SDS011;9346;52.006;4.720;2023-05-14T08:01:37;16.80;;;12.17;;
18435;SDS011;9346;52.006;4.720;2023-05-14T08:04:04;21.77;;;12.17;;
18435;SDS011;9346;52.006;4.720;2023-05-14T08:06:31;21.97;;;12.70;;
18435;SDS011;9346;52.006;4.720;2023-05-14T08:08:59;17.27;;;11.50;;
18435;SDS011;9346;52.006;4.720;2023-05-14T08:11:26;15.83;;;11.63;;
18435;SDS011;9346;52.006;4.720;2023-05-14T08:13:53;14.60;;;11.57;;
18435;SDS011;9346;52.006;4.720;2023-05-14T08:16:22;15.63;;;11.77;;
18435;SDS011;9346;52.006;4.720;2023-05-14T08:18:50;19.37;;;11.40;;
18435;SDS011;9346;52.006;4.720;2023-05-14T08:21:17;19.07;;;12.47;;
18435;SDS011;9346;52.006;4.720;2023-05-14T08:23:44;15.57;;;11.23;;
18435;SDS011;9346;52.006;4.720;2023-05-14T08:26:11;15.77;;;11.00;;
18435;SDS011;9346;52.006;4.720;2023-05-14T08:28:38;17.73;;;11.23;;
18435;SDS011;9346;52.006;4.720;2023-05-14T08:31:05;17.63;;;11.47;;
18435;SDS011;9346;52.006;4.720;2023-05-14T08:33:33;14.83;;;11.53;;
18435;SDS011;9346;52.006;4.720;2023-05-14T08:36:00;17.00;;;10.83;;
18435;SDS011;9346;52.006;4.720;2023-05-14T08:38:27;16.37;;;10.90;;
18435;SDS011;9346;52.006;4.720;2023-05-14T08:40:55;14.30;;;10.37;;
18435;SDS011;9346;52.006;4.720;2023-05-14T08:43:24;14.33;;;10.80;;
18435;SDS011;9346;52.006;4.720;2023-05-14T08:45:51;13.53;;;10.00;;
18435;SDS011;9346;52.006;4.720;2023-05-14T08:48:22;12.57;;;10.07;;
18435;SDS011;9346;52.006;4.720;2023-05-14T08:50:54;19.80;;;10.77;;
18435;SDS011;9346;52.006;4.720;2023-05-14T08:53:21;18.77;;;9.73;;
18435;SDS011;9346;52.006;4.720;2023-05-14T08:55:49;13.27;;;9.40;;
18435;SDS011;9346;52.006;4.720;2023-05-14T08:58:16;12.77;;;9.60;;
18435;SDS011;9346;52.006;4.720;2023-05-14T09:00:44;14.30;;;9.53;;
18435;SDS011;9346;52.006;4.720;2023-05-14T09:03:12;13.77;;;9.43;;
18435;SDS011;9346;52.006;4.720;2023-05-14T09:05:40;16.50;;;10.97;;
18435;SDS011;9346;52.006;4.720;2023-05-14T09:08:10;13.50;;;9.77;;
18435;SDS011;9346;52.006;4.720;2023-05-14T09:10:37;13.77;;;8.70;;
18435;SDS011;9346;52.006;4.720;2023-05-14T09:13:05;13.23;;;9.50;;
18435;SDS011;9346;52.006;4.720;2023-05-14T09:15:34;16.67;;;10.27;;
18435;SDS011;9346;52.006;4.720;2023-05-14T09:18:03;14.50;;;9.37;;
18435;SDS011;9346;52.006;4.720;2023-05-14T09:20:30;16.23;;;9.73;;
18435;SDS011;9346;52.006;4.720;2023-05-14T09:22:58;14.13;;;10.30;;
18435;SDS011;9346;52.006;4.720;2023-05-14T09:25:28;12.03;;;9.67;;
18435;SDS011;9346;52.006;4.720;2023-05-14T09:27:57;15.70;;;9.63;;
18435;SDS011;9346;52.006;4.720;2023-05-14T09:30:24;12.53;;;9.20;;
18435;SDS011;9346;52.006;4.720;2023-05-14T09:32:51;13.20;;;9.17;;
18435;SDS011;9346;52.006;4.720;2023-05-14T09:35:20;12.53;;;9.27;;
18435;SDS011;9346;52.006;4.720;2023-05-14T09:37:48;12.80;;;9.87;;
18435;SDS011;9346;52.006;4.720;2023-05-14T09:40:17;13.97;;;9.83;;
18435;SDS011;9346;52.006;4.720;2023-05-14T09:42:47;13.70;;;10.23;;
18435;SDS011;9346;52.006;4.720;2023-05-14T09:45:15;12.47;;;8.87;;
18435;SDS011;9346;52.006;4.720;2023-05-14T09:47:43;15.90;;;9.87;;
18435;SDS011;9346;52.006;4.720;2023-05-14T09:50:10;14.00;;;9.40;;
18435;SDS011;9346;52.006;4.720;2023-05-14T09:52:37;14.10;;;8.57;;
18435;SDS011;9346;52.006;4.720;2023-05-14T09:55:04;12.00;;;8.67;;
18435;SDS011;9346;52.006;4.720;2023-05-14T09:57:32;12.50;;;8.43;;
18435;SDS011;9346;52.006;4.720;2023-05-14T10:00:02;14.20;;;8.97;;
18435;SDS011;9346;52.006;4.720;2023-05-14T10:02:34;16.73;;;10.20;;
18435;SDS011;9346;52.006;4.720;2023-05-14T10:05:04;14.10;;;8.83;;
18435;SDS011;9346;52.006;4.720;2023-05-14T10:07:38;10.17;;;8.40;;
18435;SDS011;9346;52.006;4.720;2023-05-14T10:10:09;11.57;;;8.80;;
18435;SDS011;9346;52.006;4.720;2023-05-14T10:12:41;14.13;;;9.47;;
18435;SDS011;9346;52.006;4.720;2023-05-14T10:15:15;13.07;;;8.43;;
18435;SDS011;9346;52.006;4.720;2023-05-14T10:17:44;11.10;;;8.27;;
18435;SDS011;9346;52.006;4.720;2023-05-14T10:20:15;11.77;;;8.57;;
18435;SDS011;9346;52.006;4.720;2023-05-14T10:22:42;13.07;;;8.80;;
18435;SDS011;9346;52.006;4.720;2023-05-14T10:25:09;15.73;;;9.07;;
18435;SDS011;9346;52.006;4.720;2023-05-14T10:27:37;12.30;;;8.77;;
18435;SDS011;9346;52.006;4.720;2023-05-14T10:30:05;9.23;;;7.70;;
18435;SDS011;9346;52.006;4.720;2023-05-14T10:32:39;8.10;;;7.37;;
18435;SDS011;9346;52.006;4.720;2023-05-14T10:35:14;11.93;;;8.03;;
18435;SDS011;9346;52.006;4.720;2023-05-14T10:37:42;10.87;;;8.33;;
18435;SDS011;9346;52.006;4.720;2023-05-14T10:40:11;10.77;;;7.13;;
18435;SDS011;9346;52.006;4.720;2023-05-14T10:42:39;10.17;;;7.93;;
18435;SDS011;9346;52.006;4.720;2023-05-14T10:45:08;17.00;;;8.40;;
18435;SDS011;9346;52.006;4.720;2023-05-14T10:47:37;12.53;;;7.50;;
18435;SDS011;9346;52.006;4.720;2023-05-14T10:50:08;10.47;;;7.40;;
18435;SDS011;9346;52.006;4.720;2023-05-14T10:52:37;9.67;;;7.10;;
18435;SDS011;9346;52.006;4.720;2023-05-14T10:55:07;7.47;;;6.60;;
18435;SDS011;9346;52.006;4.720;2023-05-14T10:57:35;7.73;;;6.73;;
18435;SDS011;9346;52.006;4.720;2023-05-14T11:00:04;8.67;;;7.27;;
18435;SDS011;9346;52.006;4.720;2023-05-14T11:02:33;13.17;;;7.03;;
18435;SDS011;9346;52.006;4.720;2023-05-14T11:05:08;9.07;;;6.10;;
18435;SDS011;9346;52.006;4.720;2023-05-14T11:07:38;11.43;;;7.53;;
18435;SDS011;9346;52.006;4.720;2023-05-14T11:10:09;7.80;;;5.80;;
18435;SDS011;9346;52.006;4.720;2023-05-14T11:12:38;9.50;;;6.57;;
18435;SDS011;9346;52.006;4.720;2023-05-14T11:15:06;10.83;;;6.37;;
18435;SDS011;9346;52.006;4.720;2023-05-14T11:17:35;12.13;;;6.70;;
18435;SDS011;9346;52.006;4.720;2023-05-14T11:20:04;12.03;;;6.23;;
18435;SDS011;9346;52.006;4.720;2023-05-14T11:22:35;8.17;;;6.17;;
18435;SDS011;9346;52.006;4.720;2023-05-14T11:25:03;8.20;;;7.13;;
18435;SDS011;9346;52.006;4.720;2023-05-14T11:27:32;7.03;;;5.90;;
18435;SDS011;9346;52.006;4.720;2023-05-14T11:30:00;11.13;;;6.70;;
18435;SDS011;9346;52.006;4.720;2023-05-14T11:32:28;10.57;;;6.17;;
18435;SDS011;9346;52.006;4.720;2023-05-14T11:34:57;10.50;;;6.70;;
18435;SDS011;9346;52.006;4.720;2023-05-14T11:37:27;7.53;;;6.27;;
18435;SDS011;9346;52.006;4.720;2023-05-14T11:39:59;10.40;;;5.90;;
18435;SDS011;9346;52.006;4.720;2023-05-14T11:42:26;10.17;;;5.87;;
18435;SDS011;9346;52.006;4.720;2023-05-14T11:44:53;8.67;;;5.67;;
18435;SDS011;9346;52.006;4.720;2023-05-14T11:47:20;8.67;;;6.60;;
18435;SDS011;9346;52.006;4.720;2023-05-14T11:49:48;9.07;;;5.53;;
18435;SDS011;9346;52.006;4.720;2023-05-14T11:52:17;6.93;;;6.23;;
18435;SDS011;9346;52.006;4.720;2023-05-14T11:54:47;7.13;;;5.70;;
18435;SDS011;9346;52.006;4.720;2023-05-14T11:57:15;7.50;;;5.90;;
18435;SDS011;9346;52.006;4.720;2023-05-14T11:59:44;6.37;;;5.63;;
18435;SDS011;9346;52.006;4.720;2023-05-14T12:02:13;9.50;;;5.63;;
18435;SDS011;9346;52.006;4.720;2023-05-14T12:04:41;10.70;;;6.07;;
18435;SDS011;9346;52.006;4.720;2023-05-14T12:07:09;9.93;;;6.13;;
18435;SDS011;9346;52.006;4.720;2023-05-14T12:09:39;9.93;;;5.67;;
18435;SDS011;9346;52.006;4.720;2023-05-14T12:12:15;8.23;;;6.17;;
18435;SDS011;9346;52.006;4.720;2023-05-14T12:14:44;9.23;;;6.37;;
18435;SDS011;9346;52.006;4.720;2023-05-14T12:17:13;8.03;;;5.90;;
18435;SDS011;9346;52.006;4.720;2023-05-14T12:19:42;7.73;;;6.13;;
18435;SDS011;9346;52.006;4.720;2023-05-14T12:22:13;7.27;;;5.57;;
18435;SDS011;9346;52.006;4.720;2023-05-14T12:24:42;8.73;;;5.70;;
18435;SDS011;9346;52.006;4.720;2023-05-14T12:27:09;9.50;;;6.20;;
18435;SDS011;9346;52.006;4.720;2023-05-14T12:29:38;7.10;;;5.70;;
18435;SDS011;9346;52.006;4.720;2023-05-14T12:32:08;10.33;;;5.97;;
18435;SDS011;9346;52.006;4.720;2023-05-14T12:34:35;9.53;;;6.33;;
18435;SDS011;9346;52.006;4.720;2023-05-14T12:37:03;10.00;;;6.63;;
18435;SDS011;9346;52.006;4.720;2023-05-14T12:39:31;7.37;;;5.73;;
18435;SDS011;9346;52.006;4.720;2023-05-14T12:41:59;6.10;;;4.57;;
18435;SDS011;9346;52.006;4.720;2023-05-14T12:44:27;6.57;;;5.07;;
18435;SDS011;9346;52.006;4.720;2023-05-14T12:47:04;6.33;;;5.13;;
18435;SDS011;9346;52.006;4.720;2023-05-14T12:49:32;6.60;;;5.23;;
18435;SDS011;9346;52.006;4.720;2023-05-14T12:51:59;6.67;;;4.90;;
18435;SDS011;9346;52.006;4.720;2023-05-14T12:54:28;6.57;;;5.10;;
18435;SDS011;9346;52.006;4.720;2023-05-14T12:56:59;8.47;;;5.30;;
18435;SDS011;9346;52.006;4.720;2023-05-14T12:59:26;6.60;;;4.70;;
18435;SDS011;9346;52.006;4.720;2023-05-14T13:02:00;8.70;;;4.97;;
18435;SDS011;9346;52.006;4.720;2023-05-14T13:04:29;7.43;;;5.83;;
18435;SDS011;9346;52.006;4.720;2023-05-14T13:06:56;8.18;;;5.65;;
18435;SDS011;9346;52.006;4.720;2023-05-14T13:09:24;7.67;;;5.00;;
18435;SDS011;9346;52.006;4.720;2023-05-14T13:11:52;8.63;;;5.07;;
18435;SDS011;9346;52.006;4.720;2023-05-14T13:14:19;7.83;;;6.10;;
18435;SDS011;9346;52.006;4.720;2023-05-14T13:16:47;8.10;;;5.00;;
18435;SDS011;9346;52.006;4.720;2023-05-14T13:19:16;6.47;;;4.87;;
18435;SDS011;9346;52.006;4.720;2023-05-14T13:21:45;9.03;;;4.77;;
18435;SDS011;9346;52.006;4.720;2023-05-14T13:24:13;6.63;;;5.03;;
18435;SDS011;9346;52.006;4.720;2023-05-14T13:26:40;8.40;;;4.67;;
18435;SDS011;9346;52.006;4.720;2023-05-14T13:29:09;6.60;;;5.13;;
18435;SDS011;9346;52.006;4.720;2023-05-14T13:31:36;5.90;;;4.97;;
18435;SDS011;9346;52.006;4.720;2023-05-14T13:34:03;9.77;;;5.30;;
18435;SDS011;9346;52.006;4.720;2023-05-14T13:36:31;8.77;;;4.70;;
18435;SDS011;9346;52.006;4.720;2023-05-14T13:39:05;10.43;;;6.07;;
18435;SDS011;9346;52.006;4.720;2023-05-14T13:41:32;7.03;;;4.83;;
18435;SDS011;9346;52.006;4.720;2023-05-14T13:44:00;7.60;;;5.23;;
18435;SDS011;9346;52.006;4.720;2023-05-14T13:46:27;5.37;;;4.53;;
18435;SDS011;9346;52.006;4.720;2023-05-14T13:48:54;7.97;;;5.40;;
18435;SDS011;9346;52.006;4.720;2023-05-14T13:51:22;10.60;;;5.53;;
18435;SDS011;9346;52.006;4.720;2023-05-14T13:53:51;6.77;;;5.07;;
18435;SDS011;9346;52.006;4.720;2023-05-14T13:56:21;7.47;;;5.90;;
18435;SDS011;9346;52.006;4.720;2023-05-14T13:58:50;5.60;;;4.87;;
18435;SDS011;9346;52.006;4.720;2023-05-14T14:01:17;7.30;;;4.57;;
18435;SDS011;9346;52.006;4.720;2023-05-14T14:03:45;5.60;;;4.73;;
18435;SDS011;9346;52.006;4.720;2023-05-14T14:06:12;4.73;;;4.10;;
18435;SDS011;9346;52.006;4.720;2023-05-14T14:08:39;6.47;;;4.43;;
18435;SDS011;9346;52.006;4.720;2023-05-14T14:11:06;6.07;;;5.00;;
18435;SDS011;9346;52.006;4.720;2023-05-14T14:13:36;9.03;;;4.50;;
18435;SDS011;9346;52.006;4.720;2023-05-14T14:16:04;7.30;;;4.47;;
18435;SDS011;9346;52.006;4.720;2023-05-14T14:18:31;6.67;;;4.67;;
18435;SDS011;9346;52.006;4.720;2023-05-14T14:20:58;7.23;;;4.63;;
18435;SDS011;9346;52.006;4.720;2023-05-14T14:23:25;7.63;;;5.13;;
18435;SDS011;9346;52.006;4.720;2023-05-14T14:25:52;6.93;;;4.40;;
18435;SDS011;9346;52.006;4.720;2023-05-14T14:28:19;6.70;;;4.57;;
18435;SDS011;9346;52.006;4.720;2023-05-14T14:30:49;6.73;;;4.10;;
18435;SDS011;9346;52.006;4.720;2023-05-14T14:33:16;12.73;;;4.10;;
18435;SDS011;9346;52.006;4.720;2023-05-14T14:35:43;5.77;;;4.20;;
18435;SDS011;9346;52.006;4.720;2023-05-14T14:38:10;6.67;;;4.47;;
18435;SDS011;9346;52.006;4.720;2023-05-14T14:40:37;9.73;;;5.23;;
18435;SDS011;9346;52.006;4.720;2023-05-14T14:43:05;10.43;;;4.20;;
18435;SDS011;9346;52.006;4.720;2023-05-14T14:45:32;8.80;;;4.67;;
18435;SDS011;9346;52.006;4.720;2023-05-14T14:50:55;7.17;;;4.50;;